Smyrna, TN (MQY)

CessnaPCRedbird FMX


Wings of Eagles Aviation started in Smyrna (MQY) in 1998 as a small flight school. The Smyrna Airport is the third largest airport in the state of Tennessee and the busiest general aviation airport. With its longest runway being just over 8,000 feet and having its own air traffic control tower, this is the best possible training environment for all pilots. Once you learn how to fly here, you will be confident no matter where your aviation adventures take you.

Address:
278 Doug Warpoole Rd. Suite 104
Smyrna, TN 37167

Phone: (615) 355-0033

Business Hours:
Monday-Sunday 7a-10p

Wings MQY

NOAA Weather

Smyrna, TN

Last Updated on Jun 24 2017, 11:56 am CDT

Current Conditions: Partly Cloudy

NOAA Icon

Temp: 82°F

Wind: North at 9mph

Humidity: 60%

Heat Index: 84°F

Your 5-Day Forecast at a Glance

Available data for KMQY from the past 2 hours
SMYRNA, TN
Metar
KMQY 241656Z 35008KT 10SM SCT040 28/19 A3007 RMK AO2 SLP064 T02780194

16:56 UTC

Wind: 350° 8kt

Visibility: 10 SM

Sky: SCT 4000 ft

Temp: 28 deg C / 82.4 deg F

Dewpoint: 19 deg C / 66.2 deg F

Pressure: 30.07 inHg

TAF
KMQY 241120Z 2412/2512 32005KT P6SM BKN250 FM241800 33008G15KT P6SM SCT040 FM250000 35006KT P6SM SKC